createdAt,value
2022-10-19T00:01:23.831Z,100.00
2022-10-19T00:04:26.575Z,100.00
2022-10-19T00:07:31.985Z,100.00
2022-10-19T00:10:35.069Z,100.00
2022-10-19T00:13:38.487Z,100.00
2022-10-19T00:16:42.067Z,100.00
2022-10-19T00:19:45.250Z,100.00
2022-10-19T00:22:51.782Z,100.00
2022-10-19T00:25:58.658Z,100.00
2022-10-19T00:29:02.312Z,100.00
2022-10-19T00:32:05.226Z,100.00
2022-10-19T00:35:09.020Z,100.00
2022-10-19T00:38:13.089Z,100.00
2022-10-19T00:41:17.313Z,100.00
2022-10-19T00:45:11.794Z,100.00
2022-10-19T00:48:18.847Z,100.00
2022-10-19T00:51:22.066Z,100.00
2022-10-19T00:54:27.392Z,100.00
2022-10-19T00:57:33.020Z,100.00
2022-10-19T01:00:35.770Z,100.00
2022-10-19T01:03:39.317Z,100.00
2022-10-19T01:06:43.012Z,100.00
2022-10-19T01:09:48.166Z,100.00
2022-10-19T01:13:02.151Z,100.00
2022-10-19T01:16:15.730Z,100.00
2022-10-19T01:19:42.907Z,100.00
2022-10-19T01:23:01.836Z,100.00
2022-10-19T01:26:21.566Z,100.00
2022-10-19T01:29:38.322Z,100.00
2022-10-19T01:32:54.583Z,100.00
2022-10-19T01:36:06.112Z,100.00
2022-10-19T01:39:14.479Z,100.00
2022-10-19T01:42:25.476Z,100.00
2022-10-19T01:45:32.078Z,100.00
2022-10-19T01:48:39.870Z,100.00
2022-10-19T01:51:47.054Z,100.00
2022-10-19T01:54:55.254Z,100.00
2022-10-19T01:58:01.939Z,100.00
2022-10-19T02:01:08.022Z,100.00
2022-10-19T02:04:14.784Z,100.00
2022-10-19T02:07:17.970Z,100.00
2022-10-19T02:10:22.250Z,100.00
2022-10-19T02:13:25.905Z,100.00
2022-10-19T02:16:31.795Z,100.00
2022-10-19T02:19:36.149Z,100.00
2022-10-19T02:22:39.289Z,100.00
2022-10-19T02:25:42.067Z,100.00
2022-10-19T02:28:45.541Z,100.00
2022-10-19T02:31:49.087Z,100.00
2022-10-19T02:34:53.659Z,100.00
2022-10-19T02:38:01.795Z,100.00
2022-10-19T02:41:13.439Z,100.00
2022-10-19T02:44:21.398Z,100.00
2022-10-19T02:47:28.798Z,100.00
2022-10-19T02:50:33.187Z,100.00
2022-10-19T02:53:35.846Z,100.00
2022-10-19T02:56:38.761Z,100.00
2022-10-19T02:59:41.486Z,100.00
2022-10-19T03:02:45.498Z,100.00
2022-10-19T03:05:49.544Z,100.00
2022-10-19T03:08:52.224Z,100.00
2022-10-19T03:11:57.156Z,100.00
2022-10-19T03:14:59.829Z,100.00
2022-10-19T03:18:03.482Z,100.00
2022-10-19T03:21:10.477Z,100.00
2022-10-19T03:24:13.869Z,100.00
2022-10-19T03:27:17.031Z,100.00
2022-10-19T03:30:19.709Z,100.00
2022-10-19T03:33:22.918Z,100.00
2022-10-19T03:36:28.907Z,100.00
2022-10-19T03:39:32.032Z,100.00
2022-10-19T03:42:35.105Z,100.00
2022-10-19T03:45:37.793Z,100.00
2022-10-19T03:48:40.915Z,100.00
2022-10-19T03:51:45.297Z,100.00
2022-10-19T03:54:51.194Z,100.00
2022-10-19T03:57:54.228Z,100.00
2022-10-19T04:00:56.963Z,100.00
2022-10-19T04:04:02.288Z,100.00
2022-10-19T04:07:06.717Z,100.00
2022-10-19T04:10:09.771Z,100.00
2022-10-19T04:13:14.216Z,100.00
2022-10-19T04:16:17.194Z,100.00
2022-10-19T04:19:19.819Z,100.00
2022-10-19T04:22:24.203Z,100.00
2022-10-19T04:25:27.252Z,100.00
2022-10-19T04:28:30.027Z,100.00
2022-10-19T04:31:33.202Z,100.00
2022-10-19T04:34:39.208Z,100.00
2022-10-19T04:37:44.089Z,100.00
2022-10-19T04:40:47.164Z,100.00
2022-10-19T04:43:51.370Z,100.00
2022-10-19T04:46:54.021Z,100.00
2022-10-19T04:49:56.774Z,100.00
2022-10-19T04:53:00.793Z,100.00
2022-10-19T04:56:06.991Z,100.00
2022-10-19T04:59:11.074Z,100.00
2022-10-19T05:02:13.929Z,100.00
2022-10-19T05:05:16.851Z,100.00
2022-10-19T05:08:21.699Z,100.00
2022-10-19T05:11:24.606Z,100.00
2022-10-19T05:17:36.383Z,100.00
2022-10-19T05:20:40.390Z,100.00
2022-10-19T05:23:45.679Z,100.00
2022-10-19T05:26:48.794Z,100.00
2022-10-19T05:29:52.238Z,100.00
2022-10-19T05:32:54.959Z,100.00
2022-10-19T05:35:58.757Z,100.00
2022-10-19T05:39:07.190Z,100.00
2022-10-19T05:42:09.931Z,100.00
2022-10-19T05:45:12.884Z,100.00
2022-10-19T05:48:15.927Z,100.00
2022-10-19T05:51:21.377Z,100.00
2022-10-19T05:54:27.784Z,100.00
2022-10-19T05:57:33.495Z,100.00
2022-10-19T06:00:36.341Z,100.00
2022-10-19T06:03:39.872Z,100.00
2022-10-19T06:06:43.258Z,100.00
2022-10-19T06:09:47.938Z,100.00
2022-10-19T06:12:50.648Z,100.00
2022-10-19T06:15:54.257Z,100.00
2022-10-19T06:18:58.086Z,100.00
2022-10-19T06:22:04.450Z,100.00
2022-10-19T06:25:10.869Z,100.00
2022-10-19T06:28:13.945Z,100.00
2022-10-19T06:31:17.461Z,100.00
2022-10-19T06:34:20.206Z,100.00
2022-10-19T06:37:22.902Z,100.00
2022-10-19T06:40:27.685Z,100.00
2022-10-19T06:43:30.883Z,100.00
2022-10-19T06:46:33.898Z,100.00
2022-10-19T06:49:37.588Z,100.00
2022-10-19T06:52:40.780Z,100.00
2022-10-19T06:55:44.847Z,100.00
2022-10-19T06:58:47.664Z,100.00
2022-10-19T07:01:50.417Z,100.00
2022-10-19T07:04:53.752Z,100.00
2022-10-19T07:07:58.031Z,100.00
2022-10-19T07:11:04.603Z,100.00
2022-10-19T07:14:07.292Z,100.00
2022-10-19T07:17:12.901Z,100.00
2022-10-19T07:20:15.793Z,100.00
2022-10-19T07:23:18.463Z,100.00
2022-10-19T07:26:26.846Z,100.00
2022-10-19T07:29:29.688Z,100.00
2022-10-19T07:32:32.366Z,100.00
2022-10-19T07:35:35.048Z,100.00
2022-10-19T07:38:38.593Z,100.00
2022-10-19T07:41:43.427Z,100.00
2022-10-19T07:44:46.135Z,100.00
2022-10-19T07:47:48.797Z,100.00
2022-10-19T07:50:51.490Z,100.00
2022-10-19T07:53:54.648Z,100.00
2022-10-19T07:56:58.646Z,100.00
2022-10-19T08:00:02.042Z,100.00
2022-10-19T08:03:57.090Z,100.00
2022-10-19T08:06:29.099Z,100.00
2022-10-19T08:09:52.148Z,100.00
2022-10-19T08:12:55.920Z,100.00
2022-10-19T08:15:58.630Z,100.00
2022-10-19T08:19:03.764Z,100.00
2022-10-19T08:22:06.476Z,100.00
2022-10-19T08:25:09.609Z,100.00
2022-10-19T08:28:13.651Z,100.00
2022-10-19T08:31:18.322Z,100.00
2022-10-19T08:34:21.373Z,100.00
2022-10-19T08:37:40.125Z,100.00
2022-10-19T08:40:46.964Z,100.00
2022-10-19T08:44:00.583Z,99.76
2022-10-19T08:47:14.159Z,94.31
2022-10-19T08:50:21.366Z,94.30
2022-10-19T08:53:34.457Z,96.62
2022-10-19T08:56:50.938Z,95.21
2022-10-19T09:00:01.905Z,95.17
2022-10-19T09:03:23.077Z,96.53
2022-10-19T09:06:49.841Z,97.29
2022-10-19T09:09:56.919Z,97.45
2022-10-19T09:13:03.029Z,97.27
2022-10-19T09:16:08.463Z,97.31
2022-10-19T09:19:16.574Z,97.12
2022-10-19T09:22:22.006Z,97.52
2022-10-19T09:25:26.582Z,96.35
2022-10-19T09:28:48.143Z,96.27
2022-10-19T09:31:55.353Z,95.93
2022-10-19T09:35:02.482Z,94.29
2022-10-19T09:38:06.939Z,95.32
2022-10-19T09:41:21.812Z,95.45
2022-10-19T09:44:25.965Z,95.32
2022-10-19T09:47:35.255Z,94.98
2022-10-19T09:50:44.316Z,93.63
2022-10-19T09:53:48.631Z,91.74
2022-10-19T09:56:54.556Z,92.26
2022-10-19T09:59:57.558Z,93.87
2022-10-19T10:03:01.911Z,92.22
2022-10-19T10:06:07.905Z,92.32
2022-10-19T10:09:17.259Z,92.73
2022-10-19T10:12:20.155Z,93.13
2022-10-19T10:15:27.391Z,92.91
2022-10-19T10:18:31.748Z,92.44
2022-10-19T10:21:46.481Z,93.30
2022-10-19T10:24:53.603Z,91.68
2022-10-19T10:27:59.983Z,92.67
2022-10-19T10:31:07.071Z,92.55
2022-10-19T10:34:28.652Z,92.88
2022-10-19T10:37:41.693Z,93.04
2022-10-19T10:40:52.566Z,93.59
2022-10-19T10:44:00.782Z,93.48
2022-10-19T10:47:14.351Z,93.39
2022-10-19T10:50:23.389Z,92.44
2022-10-19T10:53:35.247Z,92.88
2022-10-19T10:56:40.733Z,94.03
2022-10-19T10:59:57.341Z,94.07
2022-10-19T11:03:09.076Z,94.39
2022-10-19T11:06:13.921Z,93.16
2022-10-19T11:09:25.474Z,93.33
2022-10-19T11:12:36.855Z,92.71
2022-10-19T11:15:51.404Z,92.89
2022-10-19T11:18:59.668Z,92.49
2022-10-19T11:22:15.446Z,92.78
2022-10-19T11:25:27.490Z,91.67
2022-10-19T11:28:47.655Z,92.47
2022-10-19T11:31:53.947Z,92.77
2022-10-19T11:35:14.275Z,93.07
2022-10-19T11:38:37.032Z,92.34
2022-10-19T11:41:46.576Z,92.47
2022-10-19T11:45:01.104Z,93.37
2022-10-19T11:48:30.319Z,93.64
2022-10-19T11:51:39.381Z,94.39
2022-10-19T11:54:57.248Z,92.93
2022-10-19T11:58:11.441Z,92.30
2022-10-19T12:01:25.199Z,92.17
2022-10-19T12:04:43.896Z,90.31
2022-10-19T12:07:57.354Z,90.71
2022-10-19T12:11:07.759Z,90.10
2022-10-19T12:14:16.434Z,90.88
2022-10-19T12:17:25.439Z,91.10
2022-10-19T12:20:33.382Z,90.71
2022-10-19T12:23:38.858Z,91.06
2022-10-19T12:26:45.451Z,91.58
2022-10-19T12:29:50.625Z,92.54
2022-10-19T12:33:02.885Z,92.95
2022-10-19T12:36:16.905Z,92.51
2022-10-19T12:39:27.358Z,91.93
2022-10-19T12:42:39.168Z,91.88
2022-10-19T12:45:45.720Z,91.87
2022-10-19T12:49:38.495Z,90.71
2022-10-19T12:52:44.938Z,90.45
2022-10-19T12:55:47.635Z,92.04
2022-10-19T12:58:55.167Z,93.11
2022-10-19T13:01:59.309Z,91.13
2022-10-19T13:05:04.300Z,91.68
2022-10-19T13:08:10.821Z,90.46
2022-10-19T13:11:16.707Z,90.66
2022-10-19T13:14:44.782Z,92.15
2022-10-19T13:17:48.568Z,92.20
2022-10-19T13:20:55.875Z,92.69
2022-10-19T13:24:36.390Z,93.64
2022-10-19T13:27:40.393Z,92.35
2022-10-19T13:31:09.305Z,93.12
2022-10-19T13:34:16.855Z,93.64
2022-10-19T13:37:21.175Z,94.43
2022-10-19T13:40:24.900Z,93.71
2022-10-19T13:43:31.506Z,92.97
2022-10-19T13:46:49.130Z,93.57
2022-10-19T13:50:21.877Z,93.95
2022-10-19T13:53:45.271Z,94.20
2022-10-19T13:57:05.020Z,93.15
2022-10-19T14:00:18.163Z,93.76
2022-10-19T14:03:30.867Z,93.36
2022-10-19T14:06:37.655Z,92.92
2022-10-19T14:10:04.037Z,93.03
2022-10-19T14:13:14.087Z,92.63
2022-10-19T14:16:22.561Z,93.30
2022-10-19T14:19:28.567Z,93.65
2022-10-19T14:22:34.032Z,93.36
2022-10-19T14:25:38.629Z,93.67
2022-10-19T14:28:43.157Z,93.92
2022-10-19T14:31:46.108Z,90.19
2022-10-19T14:34:49.586Z,89.75
2022-10-19T14:37:52.605Z,90.87
2022-10-19T14:40:57.068Z,91.28
2022-10-19T14:44:02.741Z,90.20
2022-10-19T14:47:18.343Z,91.29
2022-10-19T14:50:26.733Z,91.12
2022-10-19T14:53:35.927Z,91.24
2022-10-19T14:56:44.147Z,90.20
2022-10-19T14:59:50.785Z,90.98
2022-10-19T15:02:59.239Z,91.18
2022-10-19T15:06:04.678Z,91.34
2022-10-19T15:09:15.446Z,89.76
2022-10-19T15:12:31.628Z,89.82
2022-10-19T15:15:36.187Z,90.78
2022-10-19T15:18:49.212Z,91.32
2022-10-19T15:22:12.764Z,91.16
2022-10-19T15:25:28.066Z,91.65
2022-10-19T15:28:40.752Z,90.26
2022-10-19T15:31:44.482Z,90.45
2022-10-19T15:34:47.424Z,89.91
2022-10-19T15:37:51.294Z,90.67
2022-10-19T15:40:58.784Z,90.42
2022-10-19T15:44:04.418Z,90.67
2022-10-19T15:47:25.684Z,90.81
2022-10-19T15:50:37.687Z,90.10
2022-10-19T15:53:40.438Z,90.84
2022-10-19T15:56:45.256Z,89.07
2022-10-19T15:59:53.334Z,87.74
2022-10-19T16:02:56.063Z,88.07
2022-10-19T16:05:58.709Z,89.21
2022-10-19T16:09:02.147Z,89.82
2022-10-19T16:12:05.092Z,90.06
2022-10-19T16:15:12.668Z,90.03
2022-10-19T16:18:15.349Z,90.23
2022-10-19T16:21:19.616Z,90.05
2022-10-19T16:24:22.277Z,88.97
2022-10-19T16:27:25.120Z,89.93
2022-10-19T16:30:29.443Z,90.70
2022-10-19T16:33:33.348Z,90.51
2022-10-19T16:36:36.045Z,90.74
2022-10-19T16:39:38.837Z,90.87
2022-10-19T16:42:41.520Z,91.30
2022-10-19T16:45:46.671Z,91.39
2022-10-19T16:48:49.415Z,91.94
2022-10-19T16:51:54.848Z,92.05
2022-10-19T16:55:00.267Z,91.28
2022-10-19T16:58:03.783Z,91.71
2022-10-19T17:01:09.649Z,92.18
2022-10-19T17:04:12.663Z,92.82
2022-10-19T17:07:15.435Z,92.93
2022-10-19T17:10:18.312Z,93.24
2022-10-19T17:13:21.126Z,93.20
2022-10-19T17:16:26.954Z,93.59
2022-10-19T17:19:29.816Z,93.77
2022-10-19T17:22:33.639Z,93.72
2022-10-19T17:25:37.153Z,94.04
2022-10-19T17:28:41.253Z,94.25
2022-10-19T17:31:45.578Z,94.82
2022-10-19T17:34:48.501Z,94.76
2022-10-19T17:37:51.382Z,95.29
2022-10-19T17:40:54.219Z,95.62
2022-10-19T17:43:57.533Z,95.74
2022-10-19T17:47:02.419Z,95.94
2022-10-19T17:50:06.129Z,95.96
2022-10-19T17:53:09.018Z,96.33
2022-10-19T17:56:14.262Z,96.21
2022-10-19T17:59:17.295Z,96.84
2022-10-19T18:02:22.736Z,96.46
2022-10-19T18:05:25.407Z,96.76
2022-10-19T18:08:28.540Z,97.06
2022-10-19T18:11:34.877Z,97.05
2022-10-19T18:14:37.528Z,97.18
2022-10-19T18:17:41.550Z,97.37
2022-10-19T18:20:44.194Z,97.29
2022-10-19T18:23:48.285Z,97.62
2022-10-19T18:26:52.150Z,97.56
2022-10-19T18:29:54.872Z,97.68
2022-10-19T18:32:59.670Z,97.51
2022-10-19T18:36:02.375Z,98.04
2022-10-19T18:39:06.321Z,97.96
2022-10-19T18:42:11.997Z,98.40
2022-10-19T18:45:14.665Z,98.47
2022-10-19T18:48:18.789Z,98.42
2022-10-19T18:51:22.924Z,98.38
2022-10-19T18:54:26.399Z,98.60
2022-10-19T18:57:31.740Z,98.93
2022-10-19T19:00:34.938Z,99.85
2022-10-19T19:03:40.726Z,100.00
2022-10-19T19:06:43.454Z,100.00
2022-10-19T19:09:46.370Z,100.00
2022-10-19T19:12:50.597Z,100.00
2022-10-19T19:15:59.999Z,100.00
2022-10-19T19:19:06.299Z,100.00
2022-10-19T19:22:09.070Z,100.00
2022-10-19T19:25:11.802Z,100.00
2022-10-19T19:28:14.714Z,100.00
2022-10-19T19:31:17.404Z,100.00
2022-10-19T19:34:21.631Z,100.00
2022-10-19T19:37:24.756Z,100.00
2022-10-19T19:40:27.719Z,100.00
2022-10-19T19:43:32.577Z,100.00
2022-10-19T19:46:35.933Z,100.00
2022-10-19T19:49:40.112Z,100.00
2022-10-19T19:52:43.357Z,100.00
2022-10-19T19:55:47.999Z,100.00
2022-10-19T19:58:55.927Z,100.00
2022-10-19T20:01:58.636Z,100.00
2022-10-19T20:05:03.693Z,100.00
2022-10-19T20:08:06.805Z,100.00
2022-10-19T20:11:12.055Z,100.00
2022-10-19T20:14:15.112Z,100.00
2022-10-19T20:17:23.710Z,100.00
2022-10-19T20:20:27.785Z,100.00
2022-10-19T20:23:30.872Z,100.00
2022-10-19T20:26:33.846Z,100.00
2022-10-19T20:29:36.505Z,100.00
2022-10-19T20:32:39.435Z,100.00
2022-10-19T20:35:43.826Z,100.00
2022-10-19T20:38:48.725Z,100.00
2022-10-19T20:41:51.747Z,100.00
2022-10-19T20:44:56.337Z,100.00
2022-10-19T20:47:59.035Z,100.00
2022-10-19T20:51:14.972Z,100.00
2022-10-19T20:54:17.690Z,100.00
2022-10-19T20:57:20.415Z,100.00
2022-10-19T21:00:23.407Z,100.00
2022-10-19T21:03:26.112Z,100.00
2022-10-19T21:06:32.447Z,100.00
2022-10-19T21:09:35.151Z,100.00
2022-10-19T21:12:38.173Z,100.00
2022-10-19T21:15:41.202Z,100.00
2022-10-19T21:18:45.026Z,100.00
2022-10-19T21:21:52.060Z,100.00
2022-10-19T21:24:54.779Z,100.00
2022-10-19T21:27:57.550Z,100.00
2022-10-19T21:31:03.982Z,100.00
2022-10-19T21:34:08.340Z,100.00
2022-10-19T21:37:12.444Z,100.00
2022-10-19T21:40:15.547Z,100.00
2022-10-19T21:43:18.495Z,100.00
2022-10-19T21:46:23.345Z,100.00
2022-10-19T21:49:26.253Z,99.90
2022-10-19T21:52:30.248Z,99.88
2022-10-19T21:55:34.608Z,99.88
2022-10-19T21:58:37.273Z,99.51
2022-10-19T22:01:41.507Z,99.28
2022-10-19T22:04:44.688Z,99.34
2022-10-19T22:07:49.255Z,98.91
2022-10-19T22:10:52.138Z,98.63
2022-10-19T22:13:56.372Z,98.79
2022-10-19T22:16:59.075Z,98.93
2022-10-19T22:20:02.207Z,98.96
2022-10-19T22:23:07.701Z,98.02
2022-10-19T22:26:15.169Z,97.32
2022-10-19T22:29:18.197Z,97.79
2022-10-19T22:32:21.320Z,98.08
2022-10-19T22:35:24.228Z,97.74
2022-10-19T22:38:30.161Z,97.73
2022-10-19T22:41:32.827Z,98.08
2022-10-19T22:44:35.510Z,98.24
2022-10-19T22:47:38.192Z,97.87
2022-10-19T22:50:40.938Z,97.63
2022-10-19T22:53:45.249Z,97.57
2022-10-19T22:56:47.953Z,97.70
2022-10-19T22:59:50.617Z,97.76
2022-10-19T23:02:53.520Z,97.51
2022-10-19T23:05:56.220Z,97.44
2022-10-19T23:09:00.498Z,97.14
2022-10-19T23:12:03.352Z,97.11
2022-10-19T23:15:07.239Z,97.00
2022-10-19T23:18:10.205Z,96.92
2022-10-19T23:21:15.456Z,96.90
2022-10-19T23:24:19.486Z,97.13
2022-10-19T23:27:22.222Z,96.63
2022-10-19T23:30:25.268Z,96.86
2022-10-19T23:33:27.901Z,96.65
2022-10-19T23:36:31.295Z,96.97
2022-10-19T23:39:35.639Z,97.14
2022-10-19T23:42:38.541Z,96.52
2022-10-19T23:45:41.231Z,95.07
2022-10-19T23:48:44.452Z,95.73
2022-10-19T23:51:47.120Z,96.45
2022-10-19T23:54:51.420Z,96.37
2022-10-19T23:57:54.127Z,96.23
